Аэропорт: Ужгород. Ужгород

ICAO: UKLU

METAR:
2019/03/26 13:00
UKLU 261300Z 32003MPS 270V020 9999 NSC 09/M04 Q1019 R10/090070 NOSIG
METAR:
2018/08/04 18:39
TAF TAF UKLU 041831Z 0418/0506 CNL